sensor_id;sensor_type;location;lat;lon;timestamp;temperature;humidity
6174;DHT22;3120;48.796;9.796;2024-03-17T00:00:30;6.70;99.90
6174;DHT22;3120;48.796;9.796;2024-03-17T00:02:56;6.60;99.90
6174;DHT22;3120;48.796;9.796;2024-03-17T00:05:22;6.60;99.90
6174;DHT22;3120;48.796;9.796;2024-03-17T00:07:47;6.50;99.90
6174;DHT22;3120;48.796;9.796;2024-03-17T00:10:13;6.50;99.90
6174;DHT22;3120;48.796;9.796;2024-03-17T00:12:40;6.50;99.90
6174;DHT22;3120;48.796;9.796;2024-03-17T00:15:06;6.50;99.90
6174;DHT22;3120;48.796;9.796;2024-03-17T00:17:33;6.50;99.90
6174;DHT22;3120;48.796;9.796;2024-03-17T00:20:03;6.50;99.90
6174;DHT22;3120;48.796;9.796;2024-03-17T00:22:37;6.40;99.90
6174;DHT22;3120;48.796;9.796;2024-03-17T00:25:08;6.40;99.90
6174;DHT22;3120;48.796;9.796;2024-03-17T00:27:33;6.30;99.90
6174;DHT22;3120;48.796;9.796;2024-03-17T00:30:00;6.40;99.90
6174;DHT22;3120;48.796;9.796;2024-03-17T00:32:27;6.30;99.90
6174;DHT22;3120;48.796;9.796;2024-03-17T00:34:53;6.30;99.90
6174;DHT22;3120;48.796;9.796;2024-03-17T00:37:18;6.30;99.90
6174;DHT22;3120;48.796;9.796;2024-03-17T00:42:12;6.20;99.90
6174;DHT22;3120;48.796;9.796;2024-03-17T00:44:38;6.10;99.90
6174;DHT22;3120;48.796;9.796;2024-03-17T00:47:04;6.00;99.90
6174;DHT22;3120;48.796;9.796;2024-03-17T00:49:29;6.00;99.90
6174;DHT22;3120;48.796;9.796;2024-03-17T00:51:55;5.90;99.90
6174;DHT22;3120;48.796;9.796;2024-03-17T00:54:20;5.90;99.90
6174;DHT22;3120;48.796;9.796;2024-03-17T00:56:46;5.90;99.90
6174;DHT22;3120;48.796;9.796;2024-03-17T00:59:11;5.80;99.90
6174;DHT22;3120;48.796;9.796;2024-03-17T01:01:37;5.70;99.90
6174;DHT22;3120;48.796;9.796;2024-03-17T01:04:02;5.70;99.90
6174;DHT22;3120;48.796;9.796;2024-03-17T01:06:28;5.60;99.90
6174;DHT22;3120;48.796;9.796;2024-03-17T01:08:53;5.60;99.90
6174;DHT22;3120;48.796;9.796;2024-03-17T01:11:19;5.50;99.90
6174;DHT22;3120;48.796;9.796;2024-03-17T01:13:48;5.50;99.90
6174;DHT22;3120;48.796;9.796;2024-03-17T01:16:13;5.50;99.90
6174;DHT22;3120;48.796;9.796;2024-03-17T01:18:39;5.50;99.90
6174;DHT22;3120;48.796;9.796;2024-03-17T01:21:06;5.40;99.90
6174;DHT22;3120;48.796;9.796;2024-03-17T01:23:32;5.40;99.90
6174;DHT22;3120;48.796;9.796;2024-03-17T01:25:58;5.40;99.90
6174;DHT22;3120;48.796;9.796;2024-03-17T01:28:23;5.40;99.90
6174;DHT22;3120;48.796;9.796;2024-03-17T01:30:49;5.40;99.90
6174;DHT22;3120;48.796;9.796;2024-03-17T01:33:15;5.40;99.90
6174;DHT22;3120;48.796;9.796;2024-03-17T01:35:41;5.40;99.90
6174;DHT22;3120;48.796;9.796;2024-03-17T01:38:06;5.40;99.90
6174;DHT22;3120;48.796;9.796;2024-03-17T01:40:32;5.40;99.90
6174;DHT22;3120;48.796;9.796;2024-03-17T01:42:57;5.40;99.90
6174;DHT22;3120;48.796;9.796;2024-03-17T01:45:33;5.30;99.90
6174;DHT22;3120;48.796;9.796;2024-03-17T01:48:00;5.30;99.90
6174;DHT22;3120;48.796;9.796;2024-03-17T01:50:33;5.20;99.90
6174;DHT22;3120;48.796;9.796;2024-03-17T01:52:59;5.20;99.90
6174;DHT22;3120;48.796;9.796;2024-03-17T01:55:27;5.20;99.90
6174;DHT22;3120;48.796;9.796;2024-03-17T01:57:53;5.20;99.90
6174;DHT22;3120;48.796;9.796;2024-03-17T02:00:18;5.20;99.90
6174;DHT22;3120;48.796;9.796;2024-03-17T02:02:44;5.60;99.90
6174;DHT22;3120;48.796;9.796;2024-03-17T02:05:10;5.30;99.90
6174;DHT22;3120;48.796;9.796;2024-03-17T02:07:35;5.40;99.90
6174;DHT22;3120;48.796;9.796;2024-03-17T02:10:01;5.50;99.90
6174;DHT22;3120;48.796;9.796;2024-03-17T02:12:30;5.50;99.90
6174;DHT22;3120;48.796;9.796;2024-03-17T02:14:59;5.50;99.90
6174;DHT22;3120;48.796;9.796;2024-03-17T02:17:25;5.50;99.90
6174;DHT22;3120;48.796;9.796;2024-03-17T02:19:51;5.50;99.90
6174;DHT22;3120;48.796;9.796;2024-03-17T02:22:17;5.60;99.90
6174;DHT22;3120;48.796;9.796;2024-03-17T02:24:43;5.60;99.90
6174;DHT22;3120;48.796;9.796;2024-03-17T02:27:09;5.70;99.90
6174;DHT22;3120;48.796;9.796;2024-03-17T02:29:35;5.70;99.90
6174;DHT22;3120;48.796;9.796;2024-03-17T02:32:07;5.80;99.90
6174;DHT22;3120;48.796;9.796;2024-03-17T02:34:34;5.80;99.90
6174;DHT22;3120;48.796;9.796;2024-03-17T02:37:00;5.80;99.90
6174;DHT22;3120;48.796;9.796;2024-03-17T02:39:26;5.70;99.90
6174;DHT22;3120;48.796;9.796;2024-03-17T02:42:08;5.60;99.90
6174;DHT22;3120;48.796;9.796;2024-03-17T02:44:35;5.60;99.90
6174;DHT22;3120;48.796;9.796;2024-03-17T02:47:02;5.60;99.90
6174;DHT22;3120;48.796;9.796;2024-03-17T02:49:30;5.60;99.90
6174;DHT22;3120;48.796;9.796;2024-03-17T02:52:08;5.60;99.90
6174;DHT22;3120;48.796;9.796;2024-03-17T02:54:37;5.60;99.90
6174;DHT22;3120;48.796;9.796;2024-03-17T02:57:04;5.70;99.90
6174;DHT22;3120;48.796;9.796;2024-03-17T02:59:30;5.70;99.90
6174;DHT22;3120;48.796;9.796;2024-03-17T03:01:56;5.70;99.90
6174;DHT22;3120;48.796;9.796;2024-03-17T03:04:22;5.70;99.90
6174;DHT22;3120;48.796;9.796;2024-03-17T03:06:47;5.70;99.90
6174;DHT22;3120;48.796;9.796;2024-03-17T03:09:14;5.80;99.90
6174;DHT22;3120;48.796;9.796;2024-03-17T03:11:41;5.80;99.90
6174;DHT22;3120;48.796;9.796;2024-03-17T03:14:09;5.80;99.90
6174;DHT22;3120;48.796;9.796;2024-03-17T03:16:35;5.80;99.90
6174;DHT22;3120;48.796;9.796;2024-03-17T03:19:01;5.80;99.90
6174;DHT22;3120;48.796;9.796;2024-03-17T03:21:26;5.80;99.90
6174;DHT22;3120;48.796;9.796;2024-03-17T03:23:52;5.80;99.90
6174;DHT22;3120;48.796;9.796;2024-03-17T03:26:18;5.80;99.90
6174;DHT22;3120;48.796;9.796;2024-03-17T03:28:43;5.70;99.90
6174;DHT22;3120;48.796;9.796;2024-03-17T03:31:13;6.30;99.90
6174;DHT22;3120;48.796;9.796;2024-03-17T03:33:40;5.70;99.90
6174;DHT22;3120;48.796;9.796;2024-03-17T03:36:11;5.70;99.90
6174;DHT22;3120;48.796;9.796;2024-03-17T03:38:36;5.70;99.90
6174;DHT22;3120;48.796;9.796;2024-03-17T03:41:07;5.70;99.90
6174;DHT22;3120;48.796;9.796;2024-03-17T03:43:33;5.70;99.90
6174;DHT22;3120;48.796;9.796;2024-03-17T03:46:00;5.70;99.90
6174;DHT22;3120;48.796;9.796;2024-03-17T03:48:25;5.80;99.90
6174;DHT22;3120;48.796;9.796;2024-03-17T03:50:51;5.80;99.90
6174;DHT22;3120;48.796;9.796;2024-03-17T03:53:16;5.80;99.90
6174;DHT22;3120;48.796;9.796;2024-03-17T03:55:42;5.80;99.90
6174;DHT22;3120;48.796;9.796;2024-03-17T03:58:07;5.90;99.90
6174;DHT22;3120;48.796;9.796;2024-03-17T04:00:33;5.90;99.90
6174;DHT22;3120;48.796;9.796;2024-03-17T04:02:59;5.80;99.90
6174;DHT22;3120;48.796;9.796;2024-03-17T04:05:27;5.70;99.90
6174;DHT22;3120;48.796;9.796;2024-03-17T04:07:52;5.80;99.90
6174;DHT22;3120;48.796;9.796;2024-03-17T04:10:18;5.80;99.90
6174;DHT22;3120;48.796;9.796;2024-03-17T04:12:46;5.70;99.90
6174;DHT22;3120;48.796;9.796;2024-03-17T04:15:11;5.60;99.90
6174;DHT22;3120;48.796;9.796;2024-03-17T04:17:37;5.60;99.90
6174;DHT22;3120;48.796;9.796;2024-03-17T04:20:04;5.60;99.90
6174;DHT22;3120;48.796;9.796;2024-03-17T04:22:34;5.50;99.90
6174;DHT22;3120;48.796;9.796;2024-03-17T04:24:59;5.50;99.90
6174;DHT22;3120;48.796;9.796;2024-03-17T04:27:26;5.50;99.90
6174;DHT22;3120;48.796;9.796;2024-03-17T04:29:56;5.50;99.90
6174;DHT22;3120;48.796;9.796;2024-03-17T04:32:23;5.40;99.90
6174;DHT22;3120;48.796;9.796;2024-03-17T04:34:49;5.40;99.90
6174;DHT22;3120;48.796;9.796;2024-03-17T04:37:15;5.40;99.90
6174;DHT22;3120;48.796;9.796;2024-03-17T04:39:45;5.50;99.90
6174;DHT22;3120;48.796;9.796;2024-03-17T04:42:15;5.50;99.90
6174;DHT22;3120;48.796;9.796;2024-03-17T04:44:42;5.50;99.90
6174;DHT22;3120;48.796;9.796;2024-03-17T04:47:07;5.60;99.90
6174;DHT22;3120;48.796;9.796;2024-03-17T04:49:37;5.60;99.90
6174;DHT22;3120;48.796;9.796;2024-03-17T04:52:03;5.50;99.90
6174;DHT22;3120;48.796;9.796;2024-03-17T04:54:31;5.50;99.90
6174;DHT22;3120;48.796;9.796;2024-03-17T04:56:57;5.50;99.90
6174;DHT22;3120;48.796;9.796;2024-03-17T04:59:22;5.50;99.90
6174;DHT22;3120;48.796;9.796;2024-03-17T05:01:48;5.40;99.90
6174;DHT22;3120;48.796;9.796;2024-03-17T05:04:14;5.40;99.90
6174;DHT22;3120;48.796;9.796;2024-03-17T05:06:40;5.40;99.90
6174;DHT22;3120;48.796;9.796;2024-03-17T05:09:08;5.40;99.90
6174;DHT22;3120;48.796;9.796;2024-03-17T05:11:33;5.50;99.90
6174;DHT22;3120;48.796;9.796;2024-03-17T05:14:00;5.50;99.90
6174;DHT22;3120;48.796;9.796;2024-03-17T05:16:26;5.50;99.90
6174;DHT22;3120;48.796;9.796;2024-03-17T05:18:55;5.50;99.90
6174;DHT22;3120;48.796;9.796;2024-03-17T05:21:20;5.50;99.90
6174;DHT22;3120;48.796;9.796;2024-03-17T05:23:47;5.40;99.90
6174;DHT22;3120;48.796;9.796;2024-03-17T05:26:14;5.40;99.90
6174;DHT22;3120;48.796;9.796;2024-03-17T05:28:40;5.30;99.90
6174;DHT22;3120;48.796;9.796;2024-03-17T05:31:05;5.30;99.90
6174;DHT22;3120;48.796;9.796;2024-03-17T05:33:31;5.30;99.90
6174;DHT22;3120;48.796;9.796;2024-03-17T05:35:58;5.20;99.90
6174;DHT22;3120;48.796;9.796;2024-03-17T05:38:26;5.20;99.90
6174;DHT22;3120;48.796;9.796;2024-03-17T05:41:03;5.20;99.90
6174;DHT22;3120;48.796;9.796;2024-03-17T05:43:30;5.20;99.90
6174;DHT22;3120;48.796;9.796;2024-03-17T05:45:59;5.20;99.90
6174;DHT22;3120;48.796;9.796;2024-03-17T05:48:26;5.10;99.90
6174;DHT22;3120;48.796;9.796;2024-03-17T05:50:52;5.00;99.90
6174;DHT22;3120;48.796;9.796;2024-03-17T05:53:18;5.00;99.90
6174;DHT22;3120;48.796;9.796;2024-03-17T05:55:44;4.90;99.90
6174;DHT22;3120;48.796;9.796;2024-03-17T05:58:10;5.00;99.90
6174;DHT22;3120;48.796;9.796;2024-03-17T06:00:36;5.00;99.90
6174;DHT22;3120;48.796;9.796;2024-03-17T06:03:03;5.00;99.90
6174;DHT22;3120;48.796;9.796;2024-03-17T06:05:32;5.00;99.90
6174;DHT22;3120;48.796;9.796;2024-03-17T06:07:58;5.10;99.90
6174;DHT22;3120;48.796;9.796;2024-03-17T06:10:24;5.20;99.90
6174;DHT22;3120;48.796;9.796;2024-03-17T06:12:50;5.20;99.90
6174;DHT22;3120;48.796;9.796;2024-03-17T06:15:17;5.30;99.90
6174;DHT22;3120;48.796;9.796;2024-03-17T06:17:43;5.30;99.90
6174;DHT22;3120;48.796;9.796;2024-03-17T06:20:09;5.30;99.90
6174;DHT22;3120;48.796;9.796;2024-03-17T06:22:39;5.40;99.90
6174;DHT22;3120;48.796;9.796;2024-03-17T06:25:06;5.40;99.90
6174;DHT22;3120;48.796;9.796;2024-03-17T06:27:32;5.40;99.90
6174;DHT22;3120;48.796;9.796;2024-03-17T06:30:00;5.40;99.90
6174;DHT22;3120;48.796;9.796;2024-03-17T06:32:29;5.50;99.90
6174;DHT22;3120;48.796;9.796;2024-03-17T06:34:55;5.50;99.90
6174;DHT22;3120;48.796;9.796;2024-03-17T06:37:22;5.50;99.90
6174;DHT22;3120;48.796;9.796;2024-03-17T06:39:48;5.50;99.90
6174;DHT22;3120;48.796;9.796;2024-03-17T06:42:14;5.70;99.90
6174;DHT22;3120;48.796;9.796;2024-03-17T06:44:39;5.70;99.90
6174;DHT22;3120;48.796;9.796;2024-03-17T06:47:05;5.80;99.90
6174;DHT22;3120;48.796;9.796;2024-03-17T06:49:31;5.90;99.90
6174;DHT22;3120;48.796;9.796;2024-03-17T06:51:56;6.00;99.90
6174;DHT22;3120;48.796;9.796;2024-03-17T06:54:22;6.00;99.90
6174;DHT22;3120;48.796;9.796;2024-03-17T06:56:48;6.10;99.90
6174;DHT22;3120;48.796;9.796;2024-03-17T06:59:13;6.20;99.90
6174;DHT22;3120;48.796;9.796;2024-03-17T07:01:39;6.20;99.90
6174;DHT22;3120;48.796;9.796;2024-03-17T07:04:04;6.20;99.90
6174;DHT22;3120;48.796;9.796;2024-03-17T07:06:30;6.30;99.90
6174;DHT22;3120;48.796;9.796;2024-03-17T07:08:56;6.50;99.90
6174;DHT22;3120;48.796;9.796;2024-03-17T07:11:22;6.60;99.90
6174;DHT22;3120;48.796;9.796;2024-03-17T07:13:49;6.60;99.90
6174;DHT22;3120;48.796;9.796;2024-03-17T07:16:18;6.70;99.90
6174;DHT22;3120;48.796;9.796;2024-03-17T07:18:43;6.70;99.90
6174;DHT22;3120;48.796;9.796;2024-03-17T07:21:10;6.90;99.90
6174;DHT22;3120;48.796;9.796;2024-03-17T07:23:36;7.10;99.90
6174;DHT22;3120;48.796;9.796;2024-03-17T07:26:03;7.10;99.90
6174;DHT22;3120;48.796;9.796;2024-03-17T07:28:30;7.20;99.90
6174;DHT22;3120;48.796;9.796;2024-03-17T07:30:58;7.30;99.90
6174;DHT22;3120;48.796;9.796;2024-03-17T07:33:24;7.60;99.90
6174;DHT22;3120;48.796;9.796;2024-03-17T07:35:57;7.70;99.90
6174;DHT22;3120;48.796;9.796;2024-03-17T07:38:27;7.90;99.90
6174;DHT22;3120;48.796;9.796;2024-03-17T07:40:58;8.10;99.90
6174;DHT22;3120;48.796;9.796;2024-03-17T07:43:24;8.10;99.90
6174;DHT22;3120;48.796;9.796;2024-03-17T07:46:07;8.50;99.90
6174;DHT22;3120;48.796;9.796;2024-03-17T07:48:35;8.70;99.90
6174;DHT22;3120;48.796;9.796;2024-03-17T07:51:04;8.80;99.90
6174;DHT22;3120;48.796;9.796;2024-03-17T07:53:35;9.10;99.90
6174;DHT22;3120;48.796;9.796;2024-03-17T07:56:06;9.40;99.90
6174;DHT22;3120;48.796;9.796;2024-03-17T07:58:33;9.70;99.90
6174;DHT22;3120;48.796;9.796;2024-03-17T08:01:00;9.80;99.90
6174;DHT22;3120;48.796;9.796;2024-03-17T08:03:27;9.70;99.90
6174;DHT22;3120;48.796;9.796;2024-03-17T08:05:53;9.60;99.90
6174;DHT22;3120;48.796;9.796;2024-03-17T08:08:19;9.60;99.90
6174;DHT22;3120;48.796;9.796;2024-03-17T08:10:45;9.80;99.90
6174;DHT22;3120;48.796;9.796;2024-03-17T08:13:17;10.00;99.90
6174;DHT22;3120;48.796;9.796;2024-03-17T08:15:43;10.20;99.90
6174;DHT22;3120;48.796;9.796;2024-03-17T08:18:09;10.20;99.90
6174;DHT22;3120;48.796;9.796;2024-03-17T08:20:42;10.50;99.90
6174;DHT22;3120;48.796;9.796;2024-03-17T08:23:09;10.70;99.90
6174;DHT22;3120;48.796;9.796;2024-03-17T08:25:36;10.90;99.90
6174;DHT22;3120;48.796;9.796;2024-03-17T08:28:02;11.10;99.90
6174;DHT22;3120;48.796;9.796;2024-03-17T08:30:28;11.20;99.90
6174;DHT22;3120;48.796;9.796;2024-03-17T08:32:56;11.50;99.90
6174;DHT22;3120;48.796;9.796;2024-03-17T08:35:21;11.40;99.90
6174;DHT22;3120;48.796;9.796;2024-03-17T08:37:47;11.40;99.90
6174;DHT22;3120;48.796;9.796;2024-03-17T08:40:13;11.30;99.90
6174;DHT22;3120;48.796;9.796;2024-03-17T08:42:39;11.40;99.90
6174;DHT22;3120;48.796;9.796;2024-03-17T08:45:06;11.60;99.90
6174;DHT22;3120;48.796;9.796;2024-03-17T08:47:31;11.90;99.90
6174;DHT22;3120;48.796;9.796;2024-03-17T08:49:57;12.10;99.90
6174;DHT22;3120;48.796;9.796;2024-03-17T08:52:23;12.20;99.90
6174;DHT22;3120;48.796;9.796;2024-03-17T08:54:49;12.30;99.90
6174;DHT22;3120;48.796;9.796;2024-03-17T08:57:17;12.30;99.90
6174;DHT22;3120;48.796;9.796;2024-03-17T08:59:46;12.10;99.90
6174;DHT22;3120;48.796;9.796;2024-03-17T09:02:13;12.30;99.90
6174;DHT22;3120;48.796;9.796;2024-03-17T09:04:42;12.30;99.90
6174;DHT22;3120;48.796;9.796;2024-03-17T09:07:08;12.30;99.90
6174;DHT22;3120;48.796;9.796;2024-03-17T09:09:33;12.40;99.90
6174;DHT22;3120;48.796;9.796;2024-03-17T09:11:59;12.40;99.90
6174;DHT22;3120;48.796;9.796;2024-03-17T09:14:25;12.80;99.90
6174;DHT22;3120;48.796;9.796;2024-03-17T09:16:51;12.90;99.90
6174;DHT22;3120;48.796;9.796;2024-03-17T09:19:16;13.10;99.90
6174;DHT22;3120;48.796;9.796;2024-03-17T09:21:42;13.10;99.90
6174;DHT22;3120;48.796;9.796;2024-03-17T09:24:08;13.10;99.90
6174;DHT22;3120;48.796;9.796;2024-03-17T09:26:34;12.80;99.90
6174;DHT22;3120;48.796;9.796;2024-03-17T09:29:01;12.90;99.90
6174;DHT22;3120;48.796;9.796;2024-03-17T09:31:26;13.40;99.90
6174;DHT22;3120;48.796;9.796;2024-03-17T09:33:52;13.90;99.90
6174;DHT22;3120;48.796;9.796;2024-03-17T09:36:18;14.40;99.90
6174;DHT22;3120;48.796;9.796;2024-03-17T09:38:44;14.30;99.90
6174;DHT22;3120;48.796;9.796;2024-03-17T09:41:21;14.20;99.90
6174;DHT22;3120;48.796;9.796;2024-03-17T09:43:58;14.10;99.90
6174;DHT22;3120;48.796;9.796;2024-03-17T09:46:25;14.40;99.90
6174;DHT22;3120;48.796;9.796;2024-03-17T09:48:53;14.70;99.90
6174;DHT22;3120;48.796;9.796;2024-03-17T09:51:24;14.90;99.90
6174;DHT22;3120;48.796;9.796;2024-03-17T09:53:50;15.70;99.90
6174;DHT22;3120;48.796;9.796;2024-03-17T09:56:18;15.30;99.90
6174;DHT22;3120;48.796;9.796;2024-03-17T09:58:48;15.30;99.90
6174;DHT22;3120;48.796;9.796;2024-03-17T10:01:14;14.90;99.90
6174;DHT22;3120;48.796;9.796;2024-03-17T10:03:46;14.30;99.90
6174;DHT22;3120;48.796;9.796;2024-03-17T10:06:17;14.40;99.90
6174;DHT22;3120;48.796;9.796;2024-03-17T10:11:14;14.70;99.90
6174;DHT22;3120;48.796;9.796;2024-03-17T10:13:41;15.40;99.90
6174;DHT22;3120;48.796;9.796;2024-03-17T10:16:27;15.60;99.90
6174;DHT22;3120;48.796;9.796;2024-03-17T10:19:24;15.10;99.90
6174;DHT22;3120;48.796;9.796;2024-03-17T10:21:51;15.50;99.90
6174;DHT22;3120;48.796;9.796;2024-03-17T10:24:24;15.90;99.90
6174;DHT22;3120;48.796;9.796;2024-03-17T10:26:55;15.70;99.90
6174;DHT22;3120;48.796;9.796;2024-03-17T10:29:33;15.60;99.90
6174;DHT22;3120;48.796;9.796;2024-03-17T10:34:31;15.10;99.90
6174;DHT22;3120;48.796;9.796;2024-03-17T10:37:13;15.10;99.90
6174;DHT22;3120;48.796;9.796;2024-03-17T10:39:40;15.00;99.90
6174;DHT22;3120;48.796;9.796;2024-03-17T10:42:07;15.10;99.90
6174;DHT22;3120;48.796;9.796;2024-03-17T10:44:40;15.20;99.90
6174;DHT22;3120;48.796;9.796;2024-03-17T10:47:07;15.40;99.90
6174;DHT22;3120;48.796;9.796;2024-03-17T10:49:38;16.10;99.90
6174;DHT22;3120;48.796;9.796;2024-03-17T10:52:06;16.30;99.90
6174;DHT22;3120;48.796;9.796;2024-03-17T10:54:33;16.10;99.90
6174;DHT22;3120;48.796;9.796;2024-03-17T11:00:05;17.10;99.10
6174;DHT22;3120;48.796;9.796;2024-03-17T11:02:33;16.40;99.90
6174;DHT22;3120;48.796;9.796;2024-03-17T11:05:20;16.30;99.30
6174;DHT22;3120;48.796;9.796;2024-03-17T11:07:47;15.80;99.90
6174;DHT22;3120;48.796;9.796;2024-03-17T11:12:48;15.90;99.90
6174;DHT22;3120;48.796;9.796;2024-03-17T11:17:53;15.90;99.50
6174;DHT22;3120;48.796;9.796;2024-03-17T11:20:26;16.20;98.80
6174;DHT22;3120;48.796;9.796;2024-03-17T11:22:56;16.00;98.70
6174;DHT22;3120;48.796;9.796;2024-03-17T11:27:59;15.90;99.90
6174;DHT22;3120;48.796;9.796;2024-03-17T11:41:49;18.10;95.10
6174;DHT22;3120;48.796;9.796;2024-03-17T11:47:09;18.10;93.60
6174;DHT22;3120;48.796;9.796;2024-03-17T11:52:11;17.10;94.60
6174;DHT22;3120;48.796;9.796;2024-03-17T11:54:40;17.30;96.60
6174;DHT22;3120;48.796;9.796;2024-03-17T11:57:27;17.30;95.20
6174;DHT22;3120;48.796;9.796;2024-03-17T11:59:55;17.50;94.70
6174;DHT22;3120;48.796;9.796;2024-03-17T12:02:23;18.10;93.70
6174;DHT22;3120;48.796;9.796;2024-03-17T12:04:52;19.50;89.80
6174;DHT22;3120;48.796;9.796;2024-03-17T12:07:20;19.40;87.30
6174;DHT22;3120;48.796;9.796;2024-03-17T12:09:52;19.50;87.90
6174;DHT22;3120;48.796;9.796;2024-03-17T12:12:28;19.60;87.00
6174;DHT22;3120;48.796;9.796;2024-03-17T12:15:00;19.10;86.30
6174;DHT22;3120;48.796;9.796;2024-03-17T12:17:26;18.40;90.10
6174;DHT22;3120;48.796;9.796;2024-03-17T12:19:52;18.40;88.70
6174;DHT22;3120;48.796;9.796;2024-03-17T12:22:24;18.30;89.00
6174;DHT22;3120;48.796;9.796;2024-03-17T12:24:55;17.50;90.80
6174;DHT22;3120;48.796;9.796;2024-03-17T12:27:23;17.30;91.30
6174;DHT22;3120;48.796;9.796;2024-03-17T12:29:50;18.40;90.20
6174;DHT22;3120;48.796;9.796;2024-03-17T12:32:17;19.10;85.90
6174;DHT22;3120;48.796;9.796;2024-03-17T12:34:47;19.60;84.00
6174;DHT22;3120;48.796;9.796;2024-03-17T12:37:17;19.20;86.00
6174;DHT22;3120;48.796;9.796;2024-03-17T12:42:14;20.50;80.00
6174;DHT22;3120;48.796;9.796;2024-03-17T12:44:55;20.50;76.70
6174;DHT22;3120;48.796;9.796;2024-03-17T12:47:23;20.50;76.30
6174;DHT22;3120;48.796;9.796;2024-03-17T12:57:42;19.30;77.20
6174;DHT22;3120;48.796;9.796;2024-03-17T13:00:26;18.60;78.80
6174;DHT22;3120;48.796;9.796;2024-03-17T13:02:59;18.10;80.20
6174;DHT22;3120;48.796;9.796;2024-03-17T13:05:25;17.90;81.30
6174;DHT22;3120;48.796;9.796;2024-03-17T13:07:52;17.50;82.10
6174;DHT22;3120;48.796;9.796;2024-03-17T13:10:20;17.40;81.90
6174;DHT22;3120;48.796;9.796;2024-03-17T13:12:47;16.90;83.70
6174;DHT22;3120;48.796;9.796;2024-03-17T13:15:17;16.60;85.00
6174;DHT22;3120;48.796;9.796;2024-03-17T13:17:44;16.20;87.00
6174;DHT22;3120;48.796;9.796;2024-03-17T13:20:16;16.30;86.50
6174;DHT22;3120;48.796;9.796;2024-03-17T13:22:43;16.40;86.20
6174;DHT22;3120;48.796;9.796;2024-03-17T13:25:20;16.40;86.90
6174;DHT22;3120;48.796;9.796;2024-03-17T13:27:50;16.10;86.60
6174;DHT22;3120;48.796;9.796;2024-03-17T13:30:17;16.10;85.80
6174;DHT22;3120;48.796;9.796;2024-03-17T13:32:43;16.10;84.40
6174;DHT22;3120;48.796;9.796;2024-03-17T13:35:17;15.90;84.70
6174;DHT22;3120;48.796;9.796;2024-03-17T13:37:45;15.60;87.20
6174;DHT22;3120;48.796;9.796;2024-03-17T13:40:11;15.40;88.50
6174;DHT22;3120;48.796;9.796;2024-03-17T13:42:39;15.40;89.40
6174;DHT22;3120;48.796;9.796;2024-03-17T13:45:05;15.40;88.20
6174;DHT22;3120;48.796;9.796;2024-03-17T13:47:34;15.30;87.30
6174;DHT22;3120;48.796;9.796;2024-03-17T13:50:00;15.20;88.20
6174;DHT22;3120;48.796;9.796;2024-03-17T13:52:25;15.20;89.30
6174;DHT22;3120;48.796;9.796;2024-03-17T13:54:51;15.20;89.60
6174;DHT22;3120;48.796;9.796;2024-03-17T13:57:16;15.40;90.20
6174;DHT22;3120;48.796;9.796;2024-03-17T13:59:42;15.20;90.40
6174;DHT22;3120;48.796;9.796;2024-03-17T14:02:12;15.30;90.40
6174;DHT22;3120;48.796;9.796;2024-03-17T14:04:39;15.30;90.20
6174;DHT22;3120;48.796;9.796;2024-03-17T14:07:04;15.10;90.50
6174;DHT22;3120;48.796;9.796;2024-03-17T14:09:31;15.10;90.60
6174;DHT22;3120;48.796;9.796;2024-03-17T14:11:56;15.00;90.90
6174;DHT22;3120;48.796;9.796;2024-03-17T14:14:23;14.90;91.70
6174;DHT22;3120;48.796;9.796;2024-03-17T14:16:49;14.80;93.00
6174;DHT22;3120;48.796;9.796;2024-03-17T14:19:14;15.10;92.00
6174;DHT22;3120;48.796;9.796;2024-03-17T14:21:40;15.30;91.50
6174;DHT22;3120;48.796;9.796;2024-03-17T14:24:05;15.50;91.20
6174;DHT22;3120;48.796;9.796;2024-03-17T14:26:33;15.70;90.30
6174;DHT22;3120;48.796;9.796;2024-03-17T14:29:01;15.80;91.40
6174;DHT22;3120;48.796;9.796;2024-03-17T14:31:30;16.00;90.50
6174;DHT22;3120;48.796;9.796;2024-03-17T14:33:57;16.10;90.10
6174;DHT22;3120;48.796;9.796;2024-03-17T14:36:22;16.20;89.30
6174;DHT22;3120;48.796;9.796;2024-03-17T14:38:52;16.30;88.20
6174;DHT22;3120;48.796;9.796;2024-03-17T14:41:19;16.20;88.10
6174;DHT22;3120;48.796;9.796;2024-03-17T14:43:45;16.50;88.10
6174;DHT22;3120;48.796;9.796;2024-03-17T14:46:14;16.90;86.00
6174;DHT22;3120;48.796;9.796;2024-03-17T14:48:40;16.70;86.00
6174;DHT22;3120;48.796;9.796;2024-03-17T14:51:05;16.40;87.30
6174;DHT22;3120;48.796;9.796;2024-03-17T14:53:32;15.90;88.00
6174;DHT22;3120;48.796;9.796;2024-03-17T14:55:58;16.10;89.40
6174;DHT22;3120;48.796;9.796;2024-03-17T14:58:24;16.20;90.10
6174;DHT22;3120;48.796;9.796;2024-03-17T15:00:50;16.30;88.60
6174;DHT22;3120;48.796;9.796;2024-03-17T15:03:15;16.30;89.70
6174;DHT22;3120;48.796;9.796;2024-03-17T15:05:41;16.50;87.20
6174;DHT22;3120;48.796;9.796;2024-03-17T15:08:07;16.50;87.70
6174;DHT22;3120;48.796;9.796;2024-03-17T15:10:35;16.50;87.80
6174;DHT22;3120;48.796;9.796;2024-03-17T15:13:01;16.80;86.00
6174;DHT22;3120;48.796;9.796;2024-03-17T15:15:27;16.80;86.80
6174;DHT22;3120;48.796;9.796;2024-03-17T15:17:53;17.20;85.30
6174;DHT22;3120;48.796;9.796;2024-03-17T15:20:20;17.40;83.90
6174;DHT22;3120;48.796;9.796;2024-03-17T15:22:48;17.20;84.20
6174;DHT22;3120;48.796;9.796;2024-03-17T15:25:15;16.80;86.70
6174;DHT22;3120;48.796;9.796;2024-03-17T15:27:42;16.80;86.20
6174;DHT22;3120;48.796;9.796;2024-03-17T15:30:11;16.80;86.90
6174;DHT22;3120;48.796;9.796;2024-03-17T15:32:36;16.50;88.60
6174;DHT22;3120;48.796;9.796;2024-03-17T15:35:03;16.00;88.80
6174;DHT22;3120;48.796;9.796;2024-03-17T15:37:28;15.80;90.30
6174;DHT22;3120;48.796;9.796;2024-03-17T15:39:54;15.70;89.90
6174;DHT22;3120;48.796;9.796;2024-03-17T15:42:21;15.60;90.10
6174;DHT22;3120;48.796;9.796;2024-03-17T15:44:46;15.60;89.80
6174;DHT22;3120;48.796;9.796;2024-03-17T15:47:13;15.60;90.10
6174;DHT22;3120;48.796;9.796;2024-03-17T15:49:39;15.60;90.20
6174;DHT22;3120;48.796;9.796;2024-03-17T15:52:04;15.40;90.40
6174;DHT22;3120;48.796;9.796;2024-03-17T15:54:30;15.30;91.10
6174;DHT22;3120;48.796;9.796;2024-03-17T15:56:56;15.10;91.00
6174;DHT22;3120;48.796;9.796;2024-03-17T15:59:21;15.10;91.30
6174;DHT22;3120;48.796;9.796;2024-03-17T16:01:48;14.90;91.50
6174;DHT22;3120;48.796;9.796;2024-03-17T16:04:18;15.10;91.20
6174;DHT22;3120;48.796;9.796;2024-03-17T16:06:49;14.90;91.70
6174;DHT22;3120;48.796;9.796;2024-03-17T16:09:15;14.80;92.10
6174;DHT22;3120;48.796;9.796;2024-03-17T16:11:43;14.80;92.60
6174;DHT22;3120;48.796;9.796;2024-03-17T16:14:09;14.60;92.60
6174;DHT22;3120;48.796;9.796;2024-03-17T16:16:34;14.40;93.20
6174;DHT22;3120;48.796;9.796;2024-03-17T16:19:03;14.40;93.90
6174;DHT22;3120;48.796;9.796;2024-03-17T16:21:30;14.60;94.10
6174;DHT22;3120;48.796;9.796;2024-03-17T16:23:59;14.30;94.60
6174;DHT22;3120;48.796;9.796;2024-03-17T16:26:27;14.20;94.20
6174;DHT22;3120;48.796;9.796;2024-03-17T16:28:53;14.10;94.70
6174;DHT22;3120;48.796;9.796;2024-03-17T16:31:24;14.00;94.90
6174;DHT22;3120;48.796;9.796;2024-03-17T16:33:51;13.70;96.00
6174;DHT22;3120;48.796;9.796;2024-03-17T16:36:17;13.50;96.60
6174;DHT22;3120;48.796;9.796;2024-03-17T16:38:43;13.50;97.20
6174;DHT22;3120;48.796;9.796;2024-03-17T16:41:10;13.40;97.90
6174;DHT22;3120;48.796;9.796;2024-03-17T16:43:58;13.50;98.20
6174;DHT22;3120;48.796;9.796;2024-03-17T16:49:18;13.40;99.00
6174;DHT22;3120;48.796;9.796;2024-03-17T16:51:44;13.30;99.80
6174;DHT22;3120;48.796;9.796;2024-03-17T16:54:11;13.20;99.50
6174;DHT22;3120;48.796;9.796;2024-03-17T16:56:38;13.10;99.80
6174;DHT22;3120;48.796;9.796;2024-03-17T16:59:04;13.00;99.90